sensor_id;sensor_type;location;lat;lon;timestamp;temperature;humidity
22290;DHT22;11313;50.116;8.424;2024-01-27T00:01:37;26.30;39.70
22290;DHT22;11313;50.116;8.424;2024-01-27T00:04:03;26.30;39.70
22290;DHT22;11313;50.116;8.424;2024-01-27T00:06:29;26.30;39.70
22290;DHT22;11313;50.116;8.424;2024-01-27T00:08:54;26.30;39.70
22290;DHT22;11313;50.116;8.424;2024-01-27T00:11:20;26.30;39.70
22290;DHT22;11313;50.116;8.424;2024-01-27T00:13:46;26.30;39.70
22290;DHT22;11313;50.116;8.424;2024-01-27T00:16:11;26.30;39.70
22290;DHT22;11313;50.116;8.424;2024-01-27T00:18:37;26.30;39.70
22290;DHT22;11313;50.116;8.424;2024-01-27T00:21:04;26.30;39.70
22290;DHT22;11313;50.116;8.424;2024-01-27T00:23:29;26.30;39.80
22290;DHT22;11313;50.116;8.424;2024-01-27T00:25:55;26.20;39.60
22290;DHT22;11313;50.116;8.424;2024-01-27T00:28:21;26.30;39.80
22290;DHT22;11313;50.116;8.424;2024-01-27T00:30:46;26.30;39.80
22290;DHT22;11313;50.116;8.424;2024-01-27T00:33:12;26.30;39.70
22290;DHT22;11313;50.116;8.424;2024-01-27T00:35:37;26.30;39.80
22290;DHT22;11313;50.116;8.424;2024-01-27T00:38:03;26.10;39.60
22290;DHT22;11313;50.116;8.424;2024-01-27T00:40:29;26.30;39.80
22290;DHT22;11313;50.116;8.424;2024-01-27T00:42:54;26.10;39.70
22290;DHT22;11313;50.116;8.424;2024-01-27T00:45:20;26.30;39.80
22290;DHT22;11313;50.116;8.424;2024-01-27T00:47:50;26.20;39.80
22290;DHT22;11313;50.116;8.424;2024-01-27T00:50:16;26.20;39.80
22290;DHT22;11313;50.116;8.424;2024-01-27T00:52:42;26.20;39.80
22290;DHT22;11313;50.116;8.424;2024-01-27T00:55:07;26.20;39.80
22290;DHT22;11313;50.116;8.424;2024-01-27T00:57:33;26.20;39.80
22290;DHT22;11313;50.116;8.424;2024-01-27T00:59:59;26.20;39.80
22290;DHT22;11313;50.116;8.424;2024-01-27T01:02:24;26.20;39.80
22290;DHT22;11313;50.116;8.424;2024-01-27T01:04:50;26.20;39.80
22290;DHT22;11313;50.116;8.424;2024-01-27T01:07:15;26.20;39.90
22290;DHT22;11313;50.116;8.424;2024-01-27T01:09:41;26.20;39.90
22290;DHT22;11313;50.116;8.424;2024-01-27T01:12:06;26.20;39.90
22290;DHT22;11313;50.116;8.424;2024-01-27T01:14:32;26.20;39.90
22290;DHT22;11313;50.116;8.424;2024-01-27T01:16:57;26.20;39.80
22290;DHT22;11313;50.116;8.424;2024-01-27T01:19:23;26.20;39.80
22290;DHT22;11313;50.116;8.424;2024-01-27T01:21:49;26.20;39.80
22290;DHT22;11313;50.116;8.424;2024-01-27T01:24:14;26.10;39.70
22290;DHT22;11313;50.116;8.424;2024-01-27T01:26:40;26.20;39.80
22290;DHT22;11313;50.116;8.424;2024-01-27T01:29:05;26.20;39.80
22290;DHT22;11313;50.116;8.424;2024-01-27T01:31:31;26.20;39.80
22290;DHT22;11313;50.116;8.424;2024-01-27T01:33:57;26.20;39.70
22290;DHT22;11313;50.116;8.424;2024-01-27T01:36:22;26.20;39.70
22290;DHT22;11313;50.116;8.424;2024-01-27T01:38:48;26.20;39.70
22290;DHT22;11313;50.116;8.424;2024-01-27T01:41:13;26.30;39.80
22290;DHT22;11313;50.116;8.424;2024-01-27T01:43:39;26.20;39.70
22290;DHT22;11313;50.116;8.424;2024-01-27T01:46:05;26.30;39.80
22290;DHT22;11313;50.116;8.424;2024-01-27T01:48:30;26.20;39.70
22290;DHT22;11313;50.116;8.424;2024-01-27T01:50:56;26.20;39.80
22290;DHT22;11313;50.116;8.424;2024-01-27T01:53:22;26.20;39.70
22290;DHT22;11313;50.116;8.424;2024-01-27T01:55:48;26.40;39.90
22290;DHT22;11313;50.116;8.424;2024-01-27T01:58:15;26.20;39.70
22290;DHT22;11313;50.116;8.424;2024-01-27T02:00:42;26.20;39.80
22290;DHT22;11313;50.116;8.424;2024-01-27T02:03:11;26.20;39.80
22290;DHT22;11313;50.116;8.424;2024-01-27T02:05:38;26.20;39.80
22290;DHT22;11313;50.116;8.424;2024-01-27T02:08:03;26.20;39.80
22290;DHT22;11313;50.116;8.424;2024-01-27T02:10:29;26.20;40.50
22290;DHT22;11313;50.116;8.424;2024-01-27T02:13:02;26.20;39.80
22290;DHT22;11313;50.116;8.424;2024-01-27T02:15:28;26.20;39.80
22290;DHT22;11313;50.116;8.424;2024-01-27T02:17:53;26.20;39.70
22290;DHT22;11313;50.116;8.424;2024-01-27T02:20:19;26.30;39.70
22290;DHT22;11313;50.116;8.424;2024-01-27T02:22:44;26.30;39.70
22290;DHT22;11313;50.116;8.424;2024-01-27T02:25:10;26.30;39.70
22290;DHT22;11313;50.116;8.424;2024-01-27T02:27:35;26.30;39.60
22290;DHT22;11313;50.116;8.424;2024-01-27T02:30:01;26.30;39.60
22290;DHT22;11313;50.116;8.424;2024-01-27T02:32:27;26.20;39.60
22290;DHT22;11313;50.116;8.424;2024-01-27T02:34:52;26.30;39.80
22290;DHT22;11313;50.116;8.424;2024-01-27T02:37:18;26.20;39.80
22290;DHT22;11313;50.116;8.424;2024-01-27T02:39:43;26.20;39.80
22290;DHT22;11313;50.116;8.424;2024-01-27T02:42:09;26.20;39.70
22290;DHT22;11313;50.116;8.424;2024-01-27T02:44:34;26.30;39.80
22290;DHT22;11313;50.116;8.424;2024-01-27T02:47:00;26.20;39.60
22290;DHT22;11313;50.116;8.424;2024-01-27T02:49:26;26.20;39.70
22290;DHT22;11313;50.116;8.424;2024-01-27T02:51:51;26.20;39.70
22290;DHT22;11313;50.116;8.424;2024-01-27T02:54:17;26.20;39.80
22290;DHT22;11313;50.116;8.424;2024-01-27T02:56:42;26.20;39.80
22290;DHT22;11313;50.116;8.424;2024-01-27T02:59:08;26.30;39.90
22290;DHT22;11313;50.116;8.424;2024-01-27T03:01:33;26.10;39.80
22290;DHT22;11313;50.116;8.424;2024-01-27T03:03:59;26.20;39.80
22290;DHT22;11313;50.116;8.424;2024-01-27T03:06:24;26.00;39.70
22290;DHT22;11313;50.116;8.424;2024-01-27T03:08:50;26.00;39.70
22290;DHT22;11313;50.116;8.424;2024-01-27T03:11:15;26.00;39.80
22290;DHT22;11313;50.116;8.424;2024-01-27T03:13:41;26.10;39.90
22290;DHT22;11313;50.116;8.424;2024-01-27T03:16:11;26.00;40.00
22290;DHT22;11313;50.116;8.424;2024-01-27T03:18:36;26.10;40.00
22290;DHT22;11313;50.116;8.424;2024-01-27T03:21:08;26.10;40.00
22290;DHT22;11313;50.116;8.424;2024-01-27T03:23:33;26.10;40.00
22290;DHT22;11313;50.116;8.424;2024-01-27T03:25:59;25.90;39.80
22290;DHT22;11313;50.116;8.424;2024-01-27T03:28:24;26.00;40.00
22290;DHT22;11313;50.116;8.424;2024-01-27T03:30:50;26.00;40.00
22290;DHT22;11313;50.116;8.424;2024-01-27T03:33:15;26.00;40.00
22290;DHT22;11313;50.116;8.424;2024-01-27T03:35:41;26.00;40.00
22290;DHT22;11313;50.116;8.424;2024-01-27T03:38:07;26.00;40.00
22290;DHT22;11313;50.116;8.424;2024-01-27T03:40:33;26.00;40.00
22290;DHT22;11313;50.116;8.424;2024-01-27T03:42:58;26.00;40.00
22290;DHT22;11313;50.116;8.424;2024-01-27T03:45:24;26.00;40.00
22290;DHT22;11313;50.116;8.424;2024-01-27T03:47:49;26.00;40.00
22290;DHT22;11313;50.116;8.424;2024-01-27T03:50:15;26.00;40.00
22290;DHT22;11313;50.116;8.424;2024-01-27T03:52:41;26.10;40.10
22290;DHT22;11313;50.116;8.424;2024-01-27T03:55:07;25.90;40.00
22290;DHT22;11313;50.116;8.424;2024-01-27T03:57:32;26.00;40.10
22290;DHT22;11313;50.116;8.424;2024-01-27T03:59:58;26.10;40.20
22290;DHT22;11313;50.116;8.424;2024-01-27T04:02:23;25.90;40.10
22290;DHT22;11313;50.116;8.424;2024-01-27T04:04:49;25.90;40.10
22290;DHT22;11313;50.116;8.424;2024-01-27T04:07:14;26.00;40.10
22290;DHT22;11313;50.116;8.424;2024-01-27T04:09:40;25.90;40.10
22290;DHT22;11313;50.116;8.424;2024-01-27T04:12:05;26.00;40.10
22290;DHT22;11313;50.116;8.424;2024-01-27T04:14:31;26.00;40.10
22290;DHT22;11313;50.116;8.424;2024-01-27T04:16:56;26.00;40.00
22290;DHT22;11313;50.116;8.424;2024-01-27T04:19:22;26.00;40.10
22290;DHT22;11313;50.116;8.424;2024-01-27T04:21:47;25.90;40.10
22290;DHT22;11313;50.116;8.424;2024-01-27T04:24:13;25.90;40.00
22290;DHT22;11313;50.116;8.424;2024-01-27T04:26:38;26.00;40.10
22290;DHT22;11313;50.116;8.424;2024-01-27T04:29:04;26.00;40.10
22290;DHT22;11313;50.116;8.424;2024-01-27T04:31:29;25.90;40.00
22290;DHT22;11313;50.116;8.424;2024-01-27T04:33:57;25.90;40.00
22290;DHT22;11313;50.116;8.424;2024-01-27T04:36:27;26.00;40.00
22290;DHT22;11313;50.116;8.424;2024-01-27T04:38:56;26.00;40.00
22290;DHT22;11313;50.116;8.424;2024-01-27T04:41:22;26.00;40.00
22290;DHT22;11313;50.116;8.424;2024-01-27T04:43:47;26.00;40.00
22290;DHT22;11313;50.116;8.424;2024-01-27T04:46:13;26.00;40.00
22290;DHT22;11313;50.116;8.424;2024-01-27T04:48:38;26.20;40.10
22290;DHT22;11313;50.116;8.424;2024-01-27T04:51:04;26.00;39.90
22290;DHT22;11313;50.116;8.424;2024-01-27T04:53:29;26.00;39.90
22290;DHT22;11313;50.116;8.424;2024-01-27T04:55:55;26.00;39.90
22290;DHT22;11313;50.116;8.424;2024-01-27T04:58:20;26.00;39.90
22290;DHT22;11313;50.116;8.424;2024-01-27T05:00:46;26.00;39.90
22290;DHT22;11313;50.116;8.424;2024-01-27T05:03:11;26.00;39.90
22290;DHT22;11313;50.116;8.424;2024-01-27T05:05:42;26.00;39.80
22290;DHT22;11313;50.116;8.424;2024-01-27T05:08:08;26.10;39.80
22290;DHT22;11313;50.116;8.424;2024-01-27T05:10:35;26.10;39.80
22290;DHT22;11313;50.116;8.424;2024-01-27T05:13:00;26.00;39.80
22290;DHT22;11313;50.116;8.424;2024-01-27T05:15:26;26.10;39.90
22290;DHT22;11313;50.116;8.424;2024-01-27T05:17:52;26.10;39.70
22290;DHT22;11313;50.116;8.424;2024-01-27T05:20:17;26.20;39.70
22290;DHT22;11313;50.116;8.424;2024-01-27T05:22:44;26.10;39.60
22290;DHT22;11313;50.116;8.424;2024-01-27T05:25:09;26.10;39.70
22290;DHT22;11313;50.116;8.424;2024-01-27T05:27:37;26.00;39.60
22290;DHT22;11313;50.116;8.424;2024-01-27T05:30:04;26.10;39.70
22290;DHT22;11313;50.116;8.424;2024-01-27T05:32:30;26.10;39.70
22290;DHT22;11313;50.116;8.424;2024-01-27T05:34:56;26.20;39.80
22290;DHT22;11313;50.116;8.424;2024-01-27T05:37:21;26.00;39.70
22290;DHT22;11313;50.116;8.424;2024-01-27T05:39:46;26.10;39.70
22290;DHT22;11313;50.116;8.424;2024-01-27T05:42:12;26.20;39.80
22290;DHT22;11313;50.116;8.424;2024-01-27T05:44:37;26.10;39.70
22290;DHT22;11313;50.116;8.424;2024-01-27T05:47:03;26.10;39.70
22290;DHT22;11313;50.116;8.424;2024-01-27T05:49:29;26.10;39.80
22290;DHT22;11313;50.116;8.424;2024-01-27T05:51:54;26.10;39.80
22290;DHT22;11313;50.116;8.424;2024-01-27T05:54:20;26.00;39.80
22290;DHT22;11313;50.116;8.424;2024-01-27T05:56:45;26.00;39.80
22290;DHT22;11313;50.116;8.424;2024-01-27T05:59:11;25.90;39.70
22290;DHT22;11313;50.116;8.424;2024-01-27T06:01:36;26.00;39.80
22290;DHT22;11313;50.116;8.424;2024-01-27T06:04:02;26.00;39.80
22290;DHT22;11313;50.116;8.424;2024-01-27T06:06:28;26.00;39.80
22290;DHT22;11313;50.116;8.424;2024-01-27T06:08:53;26.00;39.80
22290;DHT22;11313;50.116;8.424;2024-01-27T06:11:26;26.10;39.80
22290;DHT22;11313;50.116;8.424;2024-01-27T06:13:51;26.00;39.80
22290;DHT22;11313;50.116;8.424;2024-01-27T06:16:20;26.00;39.90
22290;DHT22;11313;50.116;8.424;2024-01-27T06:18:46;26.00;39.90
22290;DHT22;11313;50.116;8.424;2024-01-27T06:21:11;26.00;39.80
22290;DHT22;11313;50.116;8.424;2024-01-27T06:23:37;26.00;39.80
22290;DHT22;11313;50.116;8.424;2024-01-27T06:26:09;25.90;39.70
22290;DHT22;11313;50.116;8.424;2024-01-27T06:28:35;26.10;39.90
22290;DHT22;11313;50.116;8.424;2024-01-27T06:31:02;26.00;39.80
22290;DHT22;11313;50.116;8.424;2024-01-27T06:33:28;26.00;39.90
22290;DHT22;11313;50.116;8.424;2024-01-27T06:35:53;26.10;39.90
22290;DHT22;11313;50.116;8.424;2024-01-27T06:38:19;26.00;39.80
22290;DHT22;11313;50.116;8.424;2024-01-27T06:40:45;26.00;39.90
22290;DHT22;11313;50.116;8.424;2024-01-27T06:43:14;26.00;39.80
22290;DHT22;11313;50.116;8.424;2024-01-27T06:45:39;26.30;40.00
22290;DHT22;11313;50.116;8.424;2024-01-27T06:48:06;26.00;39.70
22290;DHT22;11313;50.116;8.424;2024-01-27T06:50:32;26.00;39.80
22290;DHT22;11313;50.116;8.424;2024-01-27T06:52:58;26.00;39.90
22290;DHT22;11313;50.116;8.424;2024-01-27T06:55:24;26.00;39.90
22290;DHT22;11313;50.116;8.424;2024-01-27T06:57:50;26.00;39.90
22290;DHT22;11313;50.116;8.424;2024-01-27T07:00:16;25.90;39.80
22290;DHT22;11313;50.116;8.424;2024-01-27T07:02:42;26.10;39.90
22290;DHT22;11313;50.116;8.424;2024-01-27T07:05:08;26.20;39.90
22290;DHT22;11313;50.116;8.424;2024-01-27T07:07:35;26.10;39.80
22290;DHT22;11313;50.116;8.424;2024-01-27T07:10:01;26.20;39.80
22290;DHT22;11313;50.116;8.424;2024-01-27T07:12:26;26.20;39.70
22290;DHT22;11313;50.116;8.424;2024-01-27T07:14:52;26.20;39.70
22290;DHT22;11313;50.116;8.424;2024-01-27T07:17:18;26.20;39.70
22290;DHT22;11313;50.116;8.424;2024-01-27T07:19:44;26.20;39.60
22290;DHT22;11313;50.116;8.424;2024-01-27T07:22:09;26.20;39.50
22290;DHT22;11313;50.116;8.424;2024-01-27T07:24:35;26.30;39.60
22290;DHT22;11313;50.116;8.424;2024-01-27T07:27:01;26.20;39.50
22290;DHT22;11313;50.116;8.424;2024-01-27T07:29:27;26.20;39.50
22290;DHT22;11313;50.116;8.424;2024-01-27T07:31:52;26.20;39.50
22290;DHT22;11313;50.116;8.424;2024-01-27T07:34:18;26.30;39.40
22290;DHT22;11313;50.116;8.424;2024-01-27T07:36:44;26.30;39.40
22290;DHT22;11313;50.116;8.424;2024-01-27T07:39:10;26.30;39.40
22290;DHT22;11313;50.116;8.424;2024-01-27T07:41:36;26.30;39.40
22290;DHT22;11313;50.116;8.424;2024-01-27T07:44:08;26.20;39.40
22290;DHT22;11313;50.116;8.424;2024-01-27T07:46:35;26.20;39.40
22290;DHT22;11313;50.116;8.424;2024-01-27T07:49:01;26.20;39.50
22290;DHT22;11313;50.116;8.424;2024-01-27T07:51:28;26.20;39.50
22290;DHT22;11313;50.116;8.424;2024-01-27T07:53:53;26.20;39.60
22290;DHT22;11313;50.116;8.424;2024-01-27T07:56:19;26.20;39.60
22290;DHT22;11313;50.116;8.424;2024-01-27T07:58:44;26.20;39.60
22290;DHT22;11313;50.116;8.424;2024-01-27T08:01:13;26.10;39.60
22290;DHT22;11313;50.116;8.424;2024-01-27T08:03:39;26.20;39.60
22290;DHT22;11313;50.116;8.424;2024-01-27T08:06:05;26.20;39.70
22290;DHT22;11313;50.116;8.424;2024-01-27T08:08:32;26.20;39.60
22290;DHT22;11313;50.116;8.424;2024-01-27T08:10:58;26.10;39.60
22290;DHT22;11313;50.116;8.424;2024-01-27T08:13:23;26.10;39.60
22290;DHT22;11313;50.116;8.424;2024-01-27T08:15:49;26.10;39.60
22290;DHT22;11313;50.116;8.424;2024-01-27T08:18:16;26.10;39.60
22290;DHT22;11313;50.116;8.424;2024-01-27T08:20:41;26.10;39.70
22290;DHT22;11313;50.116;8.424;2024-01-27T08:23:07;26.00;39.60
22290;DHT22;11313;50.116;8.424;2024-01-27T08:25:34;26.00;39.70
22290;DHT22;11313;50.116;8.424;2024-01-27T08:28:00;26.00;39.70
22290;DHT22;11313;50.116;8.424;2024-01-27T08:30:25;26.00;39.70
22290;DHT22;11313;50.116;8.424;2024-01-27T08:32:51;26.10;39.80
22290;DHT22;11313;50.116;8.424;2024-01-27T08:35:16;26.00;39.70
22290;DHT22;11313;50.116;8.424;2024-01-27T08:37:42;26.10;39.70
22290;DHT22;11313;50.116;8.424;2024-01-27T08:40:08;26.00;39.70
22290;DHT22;11313;50.116;8.424;2024-01-27T08:42:34;26.00;39.60
22290;DHT22;11313;50.116;8.424;2024-01-27T08:44:59;26.10;39.60
22290;DHT22;11313;50.116;8.424;2024-01-27T08:47:25;26.10;39.60
22290;DHT22;11313;50.116;8.424;2024-01-27T08:49:50;26.20;39.60
22290;DHT22;11313;50.116;8.424;2024-01-27T08:52:16;26.00;39.60
22290;DHT22;11313;50.116;8.424;2024-01-27T08:54:42;26.20;39.70
22290;DHT22;11313;50.116;8.424;2024-01-27T08:57:07;26.00;39.60
22290;DHT22;11313;50.116;8.424;2024-01-27T08:59:33;26.00;39.60
22290;DHT22;11313;50.116;8.424;2024-01-27T09:01:59;26.00;39.60
22290;DHT22;11313;50.116;8.424;2024-01-27T09:04:25;26.00;39.50
22290;DHT22;11313;50.116;8.424;2024-01-27T09:06:50;26.10;39.60
22290;DHT22;11313;50.116;8.424;2024-01-27T09:09:16;26.10;39.50
22290;DHT22;11313;50.116;8.424;2024-01-27T09:11:42;26.10;39.50
22290;DHT22;11313;50.116;8.424;2024-01-27T09:14:08;26.20;39.50
22290;DHT22;11313;50.116;8.424;2024-01-27T09:16:33;26.20;39.50
22290;DHT22;11313;50.116;8.424;2024-01-27T09:18:59;26.10;39.50
22290;DHT22;11313;50.116;8.424;2024-01-27T09:21:25;26.20;40.10
22290;DHT22;11313;50.116;8.424;2024-01-27T09:23:57;26.20;39.30
22290;DHT22;11313;50.116;8.424;2024-01-27T09:26:22;26.20;39.30
22290;DHT22;11313;50.116;8.424;2024-01-27T09:28:48;26.20;39.20
22290;DHT22;11313;50.116;8.424;2024-01-27T09:31:23;26.30;39.20
22290;DHT22;11313;50.116;8.424;2024-01-27T09:33:50;26.30;39.20
22290;DHT22;11313;50.116;8.424;2024-01-27T09:36:17;26.30;39.20
22290;DHT22;11313;50.116;8.424;2024-01-27T09:38:43;26.30;39.10
22290;DHT22;11313;50.116;8.424;2024-01-27T09:41:09;26.30;39.10
22290;DHT22;11313;50.116;8.424;2024-01-27T09:43:36;26.30;39.00
22290;DHT22;11313;50.116;8.424;2024-01-27T09:46:02;26.40;39.00
22290;DHT22;11313;50.116;8.424;2024-01-27T09:48:29;26.40;39.00
22290;DHT22;11313;50.116;8.424;2024-01-27T09:50:58;26.40;38.90
22290;DHT22;11313;50.116;8.424;2024-01-27T09:53:23;26.50;39.00
22290;DHT22;11313;50.116;8.424;2024-01-27T09:55:49;26.40;39.00
22290;DHT22;11313;50.116;8.424;2024-01-27T09:58:15;26.40;39.00
22290;DHT22;11313;50.116;8.424;2024-01-27T10:00:41;26.40;39.00
22290;DHT22;11313;50.116;8.424;2024-01-27T10:03:08;26.50;39.10
22290;DHT22;11313;50.116;8.424;2024-01-27T10:05:34;26.40;38.90
22290;DHT22;11313;50.116;8.424;2024-01-27T10:08:00;26.40;39.00
22290;DHT22;11313;50.116;8.424;2024-01-27T10:10:25;26.40;39.00
22290;DHT22;11313;50.116;8.424;2024-01-27T10:12:52;26.40;39.00
22290;DHT22;11313;50.116;8.424;2024-01-27T10:15:21;26.40;38.90
22290;DHT22;11313;50.116;8.424;2024-01-27T10:17:47;26.50;39.00
22290;DHT22;11313;50.116;8.424;2024-01-27T10:20:13;26.40;38.90
22290;DHT22;11313;50.116;8.424;2024-01-27T10:22:44;26.50;39.00
22290;DHT22;11313;50.116;8.424;2024-01-27T10:25:11;26.50;39.00
22290;DHT22;11313;50.116;8.424;2024-01-27T10:27:37;26.50;38.90
22290;DHT22;11313;50.116;8.424;2024-01-27T10:30:03;26.50;38.90
22290;DHT22;11313;50.116;8.424;2024-01-27T10:32:29;26.50;38.80
22290;DHT22;11313;50.116;8.424;2024-01-27T10:35:04;26.60;38.80
22290;DHT22;11313;50.116;8.424;2024-01-27T10:37:30;26.60;38.80
22290;DHT22;11313;50.116;8.424;2024-01-27T10:40:03;26.60;39.50
22290;DHT22;11313;50.116;8.424;2024-01-27T10:42:29;26.60;38.80
22290;DHT22;11313;50.116;8.424;2024-01-27T10:44:58;26.60;38.80
22290;DHT22;11313;50.116;8.424;2024-01-27T10:47:28;26.60;38.80
22290;DHT22;11313;50.116;8.424;2024-01-27T10:49:59;26.60;38.80
22290;DHT22;11313;50.116;8.424;2024-01-27T10:52:29;26.60;38.80
22290;DHT22;11313;50.116;8.424;2024-01-27T10:55:03;26.60;38.90
22290;DHT22;11313;50.116;8.424;2024-01-27T10:57:33;26.60;38.90
22290;DHT22;11313;50.116;8.424;2024-01-27T11:00:00;26.60;38.80
22290;DHT22;11313;50.116;8.424;2024-01-27T11:02:28;26.60;38.80
22290;DHT22;11313;50.116;8.424;2024-01-27T11:04:57;26.60;39.50
22290;DHT22;11313;50.116;8.424;2024-01-27T11:07:24;26.50;38.80
22290;DHT22;11313;50.116;8.424;2024-01-27T11:09:50;26.60;38.80
22290;DHT22;11313;50.116;8.424;2024-01-27T11:12:19;26.60;38.80
22290;DHT22;11313;50.116;8.424;2024-01-27T11:14:47;26.60;38.80
22290;DHT22;11313;50.116;8.424;2024-01-27T11:17:14;26.50;38.70
22290;DHT22;11313;50.116;8.424;2024-01-27T11:19:40;26.60;38.80
22290;DHT22;11313;50.116;8.424;2024-01-27T11:22:06;26.60;38.90
22290;DHT22;11313;50.116;8.424;2024-01-27T11:24:32;26.60;38.80
22290;DHT22;11313;50.116;8.424;2024-01-27T11:27:05;26.70;38.90
22290;DHT22;11313;50.116;8.424;2024-01-27T11:29:32;26.60;38.90
22290;DHT22;11313;50.116;8.424;2024-01-27T11:32:00;26.60;38.90
22290;DHT22;11313;50.116;8.424;2024-01-27T11:34:27;26.60;38.80
22290;DHT22;11313;50.116;8.424;2024-01-27T11:36:52;26.60;38.80
22290;DHT22;11313;50.116;8.424;2024-01-27T11:39:29;26.60;38.80
22290;DHT22;11313;50.116;8.424;2024-01-27T11:42:13;26.60;38.80
22290;DHT22;11313;50.116;8.424;2024-01-27T11:44:40;26.60;38.80
22290;DHT22;11313;50.116;8.424;2024-01-27T11:47:14;26.60;38.90
22290;DHT22;11313;50.116;8.424;2024-01-27T11:49:42;26.60;38.90
22290;DHT22;11313;50.116;8.424;2024-01-27T11:52:07;26.60;38.90
22290;DHT22;11313;50.116;8.424;2024-01-27T11:54:33;26.60;38.80
22290;DHT22;11313;50.116;8.424;2024-01-27T11:56:58;26.60;38.80
22290;DHT22;11313;50.116;8.424;2024-01-27T11:59:24;26.60;39.50
22290;DHT22;11313;50.116;8.424;2024-01-27T12:01:50;26.60;38.80
22290;DHT22;11313;50.116;8.424;2024-01-27T12:04:16;26.60;38.80
22290;DHT22;11313;50.116;8.424;2024-01-27T12:06:43;26.60;38.80
22290;DHT22;11313;50.116;8.424;2024-01-27T12:09:09;26.60;38.80
22290;DHT22;11313;50.116;8.424;2024-01-27T12:11:38;26.60;38.80
22290;DHT22;11313;50.116;8.424;2024-01-27T12:14:07;26.60;38.80
22290;DHT22;11313;50.116;8.424;2024-01-27T12:16:33;26.60;38.80
22290;DHT22;11313;50.116;8.424;2024-01-27T12:18:58;26.60;38.80
22290;DHT22;11313;50.116;8.424;2024-01-27T12:21:25;26.60;38.80
22290;DHT22;11313;50.116;8.424;2024-01-27T12:23:54;26.60;38.80
22290;DHT22;11313;50.116;8.424;2024-01-27T12:26:21;26.60;38.80
22290;DHT22;11313;50.116;8.424;2024-01-27T12:28:47;26.60;38.70
22290;DHT22;11313;50.116;8.424;2024-01-27T12:31:15;26.60;38.70
22290;DHT22;11313;50.116;8.424;2024-01-27T12:33:48;26.60;38.70
22290;DHT22;11313;50.116;8.424;2024-01-27T12:36:15;26.60;38.70
22290;DHT22;11313;50.116;8.424;2024-01-27T12:38:41;26.60;38.70
22290;DHT22;11313;50.116;8.424;2024-01-27T12:41:07;26.60;38.70
22290;DHT22;11313;50.116;8.424;2024-01-27T12:43:32;26.70;38.70
22290;DHT22;11313;50.116;8.424;2024-01-27T12:45:58;26.60;38.70
22290;DHT22;11313;50.116;8.424;2024-01-27T12:48:24;26.60;38.70
22290;DHT22;11313;50.116;8.424;2024-01-27T12:50:49;26.70;38.70
22290;DHT22;11313;50.116;8.424;2024-01-27T12:53:15;26.70;38.80
22290;DHT22;11313;50.116;8.424;2024-01-27T12:55:40;26.70;38.70
22290;DHT22;11313;50.116;8.424;2024-01-27T12:58:06;26.80;38.70
22290;DHT22;11313;50.116;8.424;2024-01-27T13:00:32;26.70;38.70
22290;DHT22;11313;50.116;8.424;2024-01-27T13:02:57;26.70;38.70
22290;DHT22;11313;50.116;8.424;2024-01-27T13:05:23;26.70;38.70
22290;DHT22;11313;50.116;8.424;2024-01-27T13:07:48;26.80;38.70
22290;DHT22;11313;50.116;8.424;2024-01-27T13:10:14;26.80;38.70
22290;DHT22;11313;50.116;8.424;2024-01-27T13:12:39;26.80;38.70
22290;DHT22;11313;50.116;8.424;2024-01-27T13:15:05;26.80;38.70
22290;DHT22;11313;50.116;8.424;2024-01-27T13:17:31;26.80;38.70
22290;DHT22;11313;50.116;8.424;2024-01-27T13:19:56;26.80;38.70
22290;DHT22;11313;50.116;8.424;2024-01-27T13:22:22;26.80;38.70
22290;DHT22;11313;50.116;8.424;2024-01-27T13:24:49;26.80;38.60
22290;DHT22;11313;50.116;8.424;2024-01-27T13:27:15;26.70;38.60
22290;DHT22;11313;50.116;8.424;2024-01-27T13:29:41;26.80;38.60
22290;DHT22;11313;50.116;8.424;2024-01-27T13:32:07;26.90;38.70
22290;DHT22;11313;50.116;8.424;2024-01-27T13:34:32;26.80;39.30
22290;DHT22;11313;50.116;8.424;2024-01-27T13:36:58;26.80;38.60
22290;DHT22;11313;50.116;8.424;2024-01-27T13:39:25;26.80;38.70
22290;DHT22;11313;50.116;8.424;2024-01-27T13:41:51;26.80;38.70
22290;DHT22;11313;50.116;8.424;2024-01-27T13:44:16;26.80;38.70
22290;DHT22;11313;50.116;8.424;2024-01-27T13:46:42;26.80;38.70
22290;DHT22;11313;50.116;8.424;2024-01-27T13:49:08;26.80;38.70
22290;DHT22;11313;50.116;8.424;2024-01-27T13:51:33;26.80;38.70
22290;DHT22;11313;50.116;8.424;2024-01-27T13:53:59;26.80;38.80
22290;DHT22;11313;50.116;8.424;2024-01-27T13:56:25;26.80;38.70
22290;DHT22;11313;50.116;8.424;2024-01-27T13:58:51;26.80;38.70
22290;DHT22;11313;50.116;8.424;2024-01-27T14:01:17;26.80;38.70
22290;DHT22;11313;50.116;8.424;2024-01-27T14:03:42;26.80;38.70
22290;DHT22;11313;50.116;8.424;2024-01-27T14:06:08;26.70;38.70
22290;DHT22;11313;50.116;8.424;2024-01-27T14:08:38;26.70;38.80
22290;DHT22;11313;50.116;8.424;2024-01-27T14:11:04;26.70;38.80
22290;DHT22;11313;50.116;8.424;2024-01-27T14:13:29;26.70;38.70
22290;DHT22;11313;50.116;8.424;2024-01-27T14:15:55;26.80;38.80
22290;DHT22;11313;50.116;8.424;2024-01-27T14:18:20;26.70;38.80
22290;DHT22;11313;50.116;8.424;2024-01-27T14:20:47;26.60;38.90
22290;DHT22;11313;50.116;8.424;2024-01-27T14:23:14;26.60;38.90
22290;DHT22;11313;50.116;8.424;2024-01-27T14:25:39;26.60;38.90
22290;DHT22;11313;50.116;8.424;2024-01-27T14:28:05;26.60;39.00
22290;DHT22;11313;50.116;8.424;2024-01-27T14:30:33;26.60;39.00
22290;DHT22;11313;50.116;8.424;2024-01-27T14:32:58;26.60;39.00
22290;DHT22;11313;50.116;8.424;2024-01-27T14:35:24;26.60;39.10
22290;DHT22;11313;50.116;8.424;2024-01-27T14:37:52;26.60;39.10
22290;DHT22;11313;50.116;8.424;2024-01-27T14:40:17;26.60;39.10
22290;DHT22;11313;50.116;8.424;2024-01-27T14:42:46;26.70;39.10
22290;DHT22;11313;50.116;8.424;2024-01-27T14:55:43;26.60;39.10
22290;DHT22;11313;50.116;8.424;2024-01-27T14:58:10;26.60;39.00
22290;DHT22;11313;50.116;8.424;2024-01-27T15:00:35;26.60;39.10
22290;DHT22;11313;50.116;8.424;2024-01-27T15:03:05;26.60;39.00
22290;DHT22;11313;50.116;8.424;2024-01-27T15:05:31;26.60;39.10
22290;DHT22;11313;50.116;8.424;2024-01-27T15:08:01;26.60;39.00
22290;DHT22;11313;50.116;8.424;2024-01-27T15:10:27;26.60;39.00
22290;DHT22;11313;50.116;8.424;2024-01-27T15:12:52;26.60;39.00
22290;DHT22;11313;50.116;8.424;2024-01-27T15:15:18;26.60;39.10
22290;DHT22;11313;50.116;8.424;2024-01-27T15:17:43;26.40;39.00
22290;DHT22;11313;50.116;8.424;2024-01-27T15:20:09;26.60;39.10
22290;DHT22;11313;50.116;8.424;2024-01-27T15:22:35;26.60;39.10
22290;DHT22;11313;50.116;8.424;2024-01-27T15:25:00;26.60;39.10
22290;DHT22;11313;50.116;8.424;2024-01-27T15:27:26;26.60;39.10
22290;DHT22;11313;50.116;8.424;2024-01-27T15:29:51;26.60;39.10
22290;DHT22;11313;50.116;8.424;2024-01-27T15:32:17;26.60;39.00
22290;DHT22;11313;50.116;8.424;2024-01-27T15:34:46;26.60;39.00